createdAt,value
2019-03-10T00:00:48.056Z,69.40
2019-03-10T00:03:16.291Z,69.40
2019-03-10T00:05:44.523Z,68.80
2019-03-10T00:08:12.748Z,68.70
2019-03-10T00:10:40.976Z,68.40
2019-03-10T00:13:09.208Z,68.30
2019-03-10T00:15:37.429Z,68.50
2019-03-10T00:18:05.664Z,68.50
2019-03-10T00:20:33.887Z,68.50
2019-03-10T00:23:02.121Z,68.70
2019-03-10T00:25:30.344Z,67.90
2019-03-10T00:27:58.580Z,67.60
2019-03-10T00:30:26.806Z,67.90
2019-03-10T00:32:55.041Z,67.70
2019-03-10T00:35:23.256Z,67.40
2019-03-10T00:37:51.493Z,67.60
2019-03-10T00:40:39.666Z,68.10
2019-03-10T00:43:42.632Z,68.00
2019-03-10T00:46:30.608Z,67.60
2019-03-10T00:49:02.091Z,67.20
2019-03-10T00:51:48.737Z,67.70
2019-03-10T00:54:16.956Z,67.80
2019-03-10T00:56:45.230Z,67.90
2019-03-10T00:59:13.492Z,68.80
2019-03-10T01:01:41.723Z,68.70
2019-03-10T01:04:09.944Z,67.70
2019-03-10T01:06:38.168Z,67.60
2019-03-10T01:09:06.577Z,67.50
2019-03-10T01:11:34.795Z,67.60
2019-03-10T01:14:03.025Z,67.50
2019-03-10T01:16:31.718Z,67.60
2019-03-10T01:18:59.953Z,67.70
2019-03-10T01:21:28.167Z,67.80
2019-03-10T01:23:56.408Z,68.30
2019-03-10T01:26:24.632Z,68.60
2019-03-10T01:28:52.866Z,68.80
2019-03-10T01:31:35.574Z,68.70
2019-03-10T01:34:15.884Z,68.60
2019-03-10T01:36:44.104Z,69.50
2019-03-10T01:39:12.337Z,68.40
2019-03-10T01:42:00.341Z,68.70
2019-03-10T01:44:28.565Z,68.90
2019-03-10T01:46:56.788Z,68.90
2019-03-10T01:49:25.296Z,69.30
2019-03-10T01:51:53.567Z,69.30
2019-03-10T01:54:21.886Z,69.40
2019-03-10T01:56:50.196Z,69.60
2019-03-10T01:59:18.432Z,69.30
2019-03-10T02:01:46.652Z,69.60
2019-03-10T02:04:14.889Z,69.80
2019-03-10T02:06:43.124Z,69.40
2019-03-10T02:09:11.419Z,69.60
2019-03-10T02:11:39.636Z,69.50
2019-03-10T02:14:07.879Z,70.00
2019-03-10T02:16:36.097Z,70.40
2019-03-10T02:19:04.337Z,70.40
2019-03-10T02:21:32.560Z,70.30
2019-03-10T02:24:00.789Z,69.60
2019-03-10T02:26:29.014Z,69.50
2019-03-10T02:28:57.244Z,69.20
2019-03-10T02:31:25.473Z,69.30
2019-03-10T02:33:53.709Z,69.50
2019-03-10T02:36:21.934Z,69.60
2019-03-10T02:38:50.159Z,69.30
2019-03-10T02:41:37.809Z,69.60
2019-03-10T02:44:06.038Z,69.20
2019-03-10T02:46:34.574Z,69.80
2019-03-10T02:49:03.062Z,70.70
2019-03-10T02:51:31.286Z,72.00
2019-03-10T02:53:59.822Z,72.30
2019-03-10T02:56:47.585Z,73.10
2019-03-10T02:59:15.801Z,72.20
2019-03-10T03:01:44.025Z,70.10
2019-03-10T03:04:12.258Z,71.00
2019-03-10T03:06:40.482Z,70.30
2019-03-10T03:09:28.160Z,72.30
2019-03-10T03:11:56.372Z,73.00
2019-03-10T03:14:24.611Z,71.70
2019-03-10T03:16:53.029Z,74.30
2019-03-10T03:19:21.235Z,73.80
2019-03-10T03:21:49.455Z,73.30
2019-03-10T03:24:17.685Z,73.30
2019-03-10T03:26:45.906Z,75.30
2019-03-10T03:29:14.132Z,72.70
2019-03-10T03:31:42.363Z,72.90
2019-03-10T03:34:10.858Z,73.20
2019-03-10T03:36:39.537Z,73.00
2019-03-10T03:39:11.222Z,73.30
2019-03-10T03:41:39.765Z,73.20
2019-03-10T03:44:08.002Z,73.90
2019-03-10T03:46:36.223Z,72.50
2019-03-10T03:49:04.703Z,73.30
2019-03-10T03:51:32.921Z,72.80
2019-03-10T03:54:01.173Z,74.40
2019-03-10T03:56:29.453Z,74.90
2019-03-10T03:58:57.684Z,74.90
2019-03-10T04:01:30.486Z,74.40
2019-03-10T04:03:58.717Z,76.60
2019-03-10T04:06:26.952Z,74.80
2019-03-10T04:08:55.251Z,73.60
2019-03-10T04:11:23.465Z,74.40
2019-03-10T04:13:51.721Z,75.00
2019-03-10T04:16:19.965Z,76.00
2019-03-10T04:18:48.212Z,75.90
2019-03-10T04:21:16.448Z,77.00
2019-03-10T04:23:44.664Z,78.10
2019-03-10T04:26:12.896Z,78.30
2019-03-10T04:28:41.116Z,80.00
2019-03-10T04:31:09.342Z,81.00
2019-03-10T04:33:37.566Z,78.90
2019-03-10T04:36:05.803Z,80.00
2019-03-10T04:38:34.021Z,81.80
2019-03-10T04:41:02.254Z,81.40
2019-03-10T04:43:30.465Z,83.70
2019-03-10T04:45:58.744Z,84.30
2019-03-10T04:48:27.334Z,83.50
2019-03-10T04:50:55.615Z,84.20
2019-03-10T04:53:23.829Z,86.50
2019-03-10T04:55:53.698Z,85.10
2019-03-10T04:58:23.637Z,85.90
2019-03-10T05:00:53.505Z,84.50
2019-03-10T05:03:21.744Z,85.00
2019-03-10T05:05:50.280Z,85.30
2019-03-10T05:08:18.769Z,85.30
2019-03-10T05:10:46.992Z,84.50
2019-03-10T05:13:15.221Z,85.80
2019-03-10T05:15:43.800Z,85.10
2019-03-10T05:18:12.026Z,85.80
2019-03-10T05:20:42.333Z,85.70
2019-03-10T05:23:29.816Z,84.50
2019-03-10T05:25:58.602Z,86.80
2019-03-10T05:28:27.861Z,85.60
2019-03-10T05:30:56.394Z,86.80
2019-03-10T05:33:24.848Z,86.60
2019-03-10T05:35:53.109Z,86.80
2019-03-10T05:38:21.330Z,86.40
2019-03-10T05:40:49.582Z,88.10
2019-03-10T05:43:17.896Z,87.80
2019-03-10T05:45:46.137Z,88.10
2019-03-10T05:48:14.635Z,88.40
2019-03-10T05:50:42.864Z,89.20
2019-03-10T05:53:11.085Z,88.90
2019-03-10T05:55:39.586Z,89.00
2019-03-10T05:58:07.784Z,89.10
2019-03-10T06:00:42.666Z,89.80
2019-03-10T06:03:06.048Z,90.50
2019-03-10T06:05:34.281Z,90.80
2019-03-10T06:08:02.500Z,91.00
2019-03-10T06:10:30.740Z,91.00
2019-03-10T06:12:58.959Z,90.80
2019-03-10T06:15:27.192Z,90.80
2019-03-10T06:17:55.422Z,92.80
2019-03-10T06:20:23.648Z,91.30
2019-03-10T06:22:51.873Z,91.30
2019-03-10T06:25:20.417Z,91.50
2019-03-10T06:27:48.632Z,91.30
2019-03-10T06:30:16.868Z,91.90
2019-03-10T06:32:45.088Z,92.40
2019-03-10T06:35:13.324Z,92.40
2019-03-10T06:37:41.546Z,92.30
2019-03-10T06:40:09.779Z,92.20
2019-03-10T06:42:38.000Z,92.60
2019-03-10T06:45:07.068Z,92.70
2019-03-10T06:47:35.296Z,93.00
2019-03-10T06:50:05.163Z,93.70
2019-03-10T06:52:33.712Z,94.40
2019-03-10T06:55:01.934Z,95.10
2019-03-10T06:57:30.163Z,95.10
2019-03-10T06:59:58.384Z,95.30
2019-03-10T07:02:26.669Z,95.30
2019-03-10T07:04:54.888Z,95.10
2019-03-10T07:07:23.201Z,95.30
2019-03-10T07:09:51.433Z,96.00
2019-03-10T07:12:19.760Z,96.30
2019-03-10T07:14:47.980Z,96.50
2019-03-10T07:17:16.309Z,96.70
2019-03-10T07:19:44.528Z,97.00
2019-03-10T07:22:12.760Z,96.80
2019-03-10T07:24:40.983Z,98.60
2019-03-10T07:27:09.248Z,99.90
2019-03-10T07:29:39.406Z,97.40
2019-03-10T07:32:15.416Z,95.70
2019-03-10T07:34:45.283Z,92.70
2019-03-10T07:37:17.900Z,92.60
2019-03-10T07:39:47.766Z,92.20
2019-03-10T07:42:17.634Z,91.10
2019-03-10T07:44:50.459Z,91.70
2019-03-10T07:47:20.392Z,92.90
2019-03-10T07:49:50.281Z,93.70
2019-03-10T07:52:22.820Z,94.20
2019-03-10T07:57:50.456Z,95.40
2019-03-10T08:00:20.316Z,95.60
2019-03-10T08:02:59.095Z,95.50
2019-03-10T08:05:31.669Z,95.70
2019-03-10T08:08:10.729Z,96.10
2019-03-10T08:10:40.589Z,96.00
2019-03-10T08:13:26.880Z,95.90
2019-03-10T08:15:57.045Z,96.10
2019-03-10T08:18:32.800Z,95.70
2019-03-10T08:21:02.657Z,96.10
2019-03-10T08:23:44.864Z,96.30
2019-03-10T08:26:17.408Z,96.20
2019-03-10T08:29:03.699Z,96.20
2019-03-10T08:31:50.228Z,96.50
2019-03-10T08:34:29.169Z,96.40
2019-03-10T08:36:59.024Z,96.40
2019-03-10T08:39:45.204Z,96.30
2019-03-10T08:42:24.564Z,96.30
2019-03-10T08:45:03.328Z,95.80
2019-03-10T08:47:55.056Z,96.00
2019-03-10T08:50:27.468Z,96.10
2019-03-10T08:52:57.613Z,95.60
2019-03-10T08:55:44.007Z,94.90
2019-03-10T08:58:25.838Z,95.40
2019-03-10T09:00:58.651Z,95.50
2019-03-10T09:03:30.920Z,95.70
2019-03-10T09:06:12.533Z,96.00
2019-03-10T09:08:54.456Z,96.00
2019-03-10T09:11:27.156Z,95.80
2019-03-10T09:13:59.743Z,96.10
2019-03-10T09:16:51.937Z,96.10
2019-03-10T09:19:27.564Z,96.30
2019-03-10T09:22:03.401Z,96.30
2019-03-10T09:24:38.999Z,96.00
2019-03-10T09:27:08.857Z,96.90
2019-03-10T09:29:54.920Z,96.50
2019-03-10T09:32:43.150Z,96.20
2019-03-10T09:35:29.656Z,95.80
2019-03-10T09:38:05.709Z,98.80
2019-03-10T09:40:50.697Z,97.80
2019-03-10T09:43:29.562Z,94.20
2019-03-10T09:46:02.389Z,94.20
2019-03-10T09:48:41.340Z,94.80
2019-03-10T09:51:20.346Z,95.00
2019-03-10T09:54:06.556Z,95.50
2019-03-10T09:56:48.648Z,95.70
2019-03-10T09:59:21.277Z,95.80
2019-03-10T10:01:59.776Z,95.90
2019-03-10T10:04:35.589Z,95.90
2019-03-10T10:07:21.984Z,96.60
2019-03-10T10:09:52.099Z,96.50
2019-03-10T10:12:25.098Z,96.70
2019-03-10T10:15:00.920Z,96.20
2019-03-10T10:17:37.196Z,96.20
2019-03-10T10:20:10.554Z,95.80
2019-03-10T10:22:48.757Z,95.90
2019-03-10T10:25:25.118Z,95.70
2019-03-10T10:28:06.998Z,96.20
2019-03-10T10:30:36.864Z,95.70
2019-03-10T10:33:17.657Z,95.80
2019-03-10T10:35:50.770Z,95.50
2019-03-10T10:38:37.822Z,95.20
2019-03-10T10:41:10.282Z,95.50
2019-03-10T10:43:45.955Z,94.90
2019-03-10T10:49:40.427Z,95.20
2019-03-10T10:52:10.435Z,94.80
2019-03-10T10:54:41.716Z,94.30
2019-03-10T10:57:11.207Z,93.80
2019-03-10T10:59:43.156Z,93.90
2019-03-10T11:02:23.526Z,93.30
2019-03-10T11:05:02.372Z,93.20
2019-03-10T11:07:35.296Z,92.60
2019-03-10T11:10:10.964Z,92.90
2019-03-10T11:12:40.826Z,93.20
2019-03-10T11:15:16.833Z,93.00
2019-03-10T11:17:52.700Z,93.70
2019-03-10T11:20:29.228Z,93.80
2019-03-10T11:22:59.099Z,93.30
2019-03-10T11:25:29.919Z,92.50
2019-03-10T11:28:08.868Z,91.90
2019-03-10T11:30:38.747Z,91.70
2019-03-10T11:33:15.003Z,90.60
2019-03-10T11:35:53.592Z,91.30
2019-03-10T11:38:23.784Z,88.60
2019-03-10T11:40:56.856Z,88.90
2019-03-10T11:43:26.738Z,88.00
2019-03-10T11:45:58.247Z,88.00
2019-03-10T11:48:31.199Z,86.80
2019-03-10T11:51:04.460Z,86.40
2019-03-10T11:53:40.354Z,87.00
2019-03-10T11:56:16.122Z,84.20
2019-03-10T11:58:48.674Z,82.20
2019-03-10T12:01:21.220Z,81.60
2019-03-10T12:04:00.914Z,80.50
2019-03-10T12:06:59.180Z,82.60
2019-03-10T12:09:27.422Z,86.10
2019-03-10T12:11:55.642Z,81.10
2019-03-10T12:14:23.917Z,80.60
2019-03-10T12:16:52.148Z,80.60
2019-03-10T12:19:20.378Z,76.00
2019-03-10T12:21:48.915Z,76.50
2019-03-10T12:24:17.153Z,73.50
2019-03-10T12:26:51.180Z,74.30
2019-03-10T12:29:27.113Z,75.00
2019-03-10T12:32:05.430Z,73.70
2019-03-10T12:34:33.680Z,75.40
2019-03-10T12:37:13.968Z,80.00
2019-03-10T12:39:42.217Z,80.20
2019-03-10T12:42:10.440Z,82.20
2019-03-10T12:44:40.581Z,80.50
2019-03-10T12:47:09.170Z,78.90
2019-03-10T12:49:37.757Z,76.30
2019-03-10T12:52:06.043Z,74.00
2019-03-10T12:54:34.260Z,71.50
2019-03-10T12:57:02.525Z,72.80
2019-03-10T12:59:30.763Z,73.80
2019-03-10T13:01:59.013Z,74.50
2019-03-10T13:04:27.261Z,74.60
2019-03-10T13:06:55.495Z,76.30
2019-03-10T13:09:23.815Z,72.20
2019-03-10T13:11:52.028Z,76.50
2019-03-10T13:14:20.542Z,75.60
2019-03-10T13:16:49.207Z,77.80
2019-03-10T13:19:17.448Z,78.50
2019-03-10T13:22:03.910Z,74.20
2019-03-10T13:24:32.386Z,69.80
2019-03-10T13:27:00.607Z,66.50
2019-03-10T13:29:28.826Z,66.10
2019-03-10T13:31:57.094Z,66.30
2019-03-10T13:34:25.326Z,66.40
2019-03-10T13:36:53.678Z,62.80
2019-03-10T13:39:21.976Z,61.40
2019-03-10T13:41:50.337Z,58.90
2019-03-10T13:44:28.998Z,58.30
2019-03-10T13:46:57.598Z,59.30
2019-03-10T13:49:25.825Z,58.30
2019-03-10T13:51:54.077Z,56.50
2019-03-10T13:54:22.317Z,57.70
2019-03-10T13:56:50.587Z,56.00
2019-03-10T13:59:18.876Z,54.30
2019-03-10T14:01:53.750Z,55.00
2019-03-10T14:04:23.293Z,53.90
2019-03-10T14:06:51.541Z,55.40
2019-03-10T14:09:19.760Z,55.20
2019-03-10T14:11:47.996Z,54.70
2019-03-10T14:14:16.312Z,52.20
2019-03-10T14:17:24.422Z,52.70
2019-03-10T14:23:01.349Z,52.00
2019-03-10T14:25:29.638Z,54.30
2019-03-10T14:27:57.934Z,58.00
2019-03-10T14:30:26.468Z,61.20
2019-03-10T14:32:54.689Z,60.40
2019-03-10T14:35:23.237Z,59.60
2019-03-10T14:37:51.476Z,60.30
2019-03-10T14:40:20.452Z,60.30
2019-03-10T14:42:48.766Z,59.80
2019-03-10T14:45:17.834Z,61.20
2019-03-10T14:47:46.143Z,61.00
2019-03-10T14:50:16.724Z,61.70
2019-03-10T14:52:52.955Z,61.30
2019-03-10T14:55:22.228Z,60.40
2019-03-10T14:57:50.521Z,59.40
2019-03-10T15:00:29.500Z,59.80
2019-03-10T15:02:58.001Z,59.40
2019-03-10T15:05:26.224Z,59.60
2019-03-10T15:07:54.457Z,58.50
2019-03-10T15:10:22.672Z,58.60
2019-03-10T15:12:50.915Z,59.00
2019-03-10T15:15:22.626Z,60.90
2019-03-10T15:17:49.905Z,60.10
2019-03-10T15:20:18.293Z,59.80
2019-03-10T15:22:46.529Z,62.20
2019-03-10T15:25:19.934Z,65.80
2019-03-10T15:27:48.264Z,65.40
2019-03-10T15:30:18.126Z,64.00
2019-03-10T15:32:46.595Z,65.40
2019-03-10T15:35:14.817Z,65.00
2019-03-10T15:37:43.061Z,64.50
2019-03-10T15:40:15.784Z,64.70
2019-03-10T15:42:44.351Z,60.80
2019-03-10T15:45:14.119Z,60.20
2019-03-10T15:47:42.367Z,58.90
2019-03-10T15:50:34.285Z,57.80
2019-03-10T15:53:02.542Z,56.20
2019-03-10T15:55:30.769Z,55.90
2019-03-10T15:57:59.105Z,55.10
2019-03-10T16:00:27.754Z,56.60
2019-03-10T16:02:59.911Z,55.70
2019-03-10T16:05:28.649Z,55.10
2019-03-10T16:07:56.954Z,54.70
2019-03-10T16:10:25.172Z,54.90
2019-03-10T16:12:53.412Z,54.90
2019-03-10T16:15:28.928Z,53.50
2019-03-10T16:17:57.203Z,54.20
2019-03-10T16:20:25.468Z,54.90
2019-03-10T16:22:55.317Z,55.10
2019-03-10T16:25:23.643Z,55.00
2019-03-10T16:27:51.905Z,54.80
2019-03-10T16:30:22.424Z,55.50
2019-03-10T16:32:50.936Z,52.70
2019-03-10T16:35:19.154Z,62.80
2019-03-10T16:37:47.408Z,57.40
2019-03-10T16:40:19.436Z,50.30
2019-03-10T16:42:48.036Z,50.90
2019-03-10T16:45:23.658Z,50.40
2019-03-10T16:47:52.000Z,50.90
2019-03-10T16:50:24.337Z,50.70
2019-03-10T16:52:52.736Z,56.70
2019-03-10T16:55:20.957Z,49.60
2019-03-10T16:57:49.283Z,51.00
2019-03-10T17:00:19.556Z,50.50
2019-03-10T17:02:48.053Z,52.30
2019-03-10T17:05:17.336Z,52.80
2019-03-10T17:07:45.604Z,53.70
2019-03-10T17:10:24.995Z,64.50
2019-03-10T17:12:53.232Z,54.80
2019-03-10T17:15:25.250Z,56.20
2019-03-10T17:17:53.480Z,56.30
2019-03-10T17:20:21.783Z,58.70
2019-03-10T17:22:50.263Z,58.60
2019-03-10T17:25:18.480Z,58.10
2019-03-10T17:27:46.726Z,59.20
2019-03-10T17:30:24.893Z,58.80
2019-03-10T17:32:53.133Z,56.90
2019-03-10T17:35:21.700Z,57.80
2019-03-10T17:37:49.953Z,59.50
2019-03-10T17:40:23.312Z,59.40
2019-03-10T17:42:51.549Z,58.00
2019-03-10T17:45:20.613Z,60.10
2019-03-10T17:47:49.166Z,59.80
2019-03-10T17:50:18.241Z,60.60
2019-03-10T17:52:46.833Z,59.70
2019-03-10T17:55:16.497Z,62.10
2019-03-10T17:57:44.736Z,59.20
2019-03-10T18:00:16.603Z,57.60
2019-03-10T18:02:44.837Z,57.70
2019-03-10T18:05:13.390Z,57.10
2019-03-10T18:07:41.626Z,56.70
2019-03-10T18:10:17.432Z,57.80
2019-03-10T18:12:46.061Z,58.60
2019-03-10T18:15:15.431Z,55.90
2019-03-10T18:17:43.641Z,56.20
2019-03-10T18:20:15.227Z,56.30
2019-03-10T18:22:43.808Z,55.30
2019-03-10T18:25:12.424Z,55.70
2019-03-10T18:27:40.659Z,53.70
2019-03-10T18:30:25.382Z,56.50
2019-03-10T18:32:53.601Z,83.40
2019-03-10T18:35:21.832Z,63.70
2019-03-10T18:37:50.065Z,52.30
2019-03-10T18:40:22.265Z,52.60
2019-03-10T18:42:50.744Z,53.90
2019-03-10T18:45:19.724Z,56.50
2019-03-10T18:47:48.294Z,58.30
2019-03-10T18:50:21.889Z,59.60
2019-03-10T18:52:50.117Z,59.60
2019-03-10T18:55:18.730Z,59.70
2019-03-10T18:57:46.954Z,59.70
2019-03-10T19:00:28.522Z,60.30
2019-03-10T19:02:56.740Z,61.00
2019-03-10T19:05:25.055Z,60.40
2019-03-10T19:07:53.272Z,60.30
2019-03-10T19:10:21.821Z,62.60
2019-03-10T19:12:50.041Z,64.00
2019-03-10T19:15:22.652Z,64.60
2019-03-10T19:17:50.877Z,65.10
2019-03-10T19:20:19.430Z,65.20
2019-03-10T19:22:47.731Z,65.00
2019-03-10T19:25:16.900Z,66.70
2019-03-10T19:27:45.133Z,66.20
2019-03-10T19:30:18.305Z,66.30
2019-03-10T19:32:46.524Z,66.20
2019-03-10T19:35:14.941Z,65.60
2019-03-10T19:37:43.225Z,66.40
2019-03-10T19:40:15.748Z,65.80
2019-03-10T19:42:44.025Z,66.80
2019-03-10T19:45:15.377Z,66.60
2019-03-10T19:47:43.596Z,67.00
2019-03-10T19:50:23.411Z,67.90
2019-03-10T19:52:51.733Z,66.30
2019-03-10T19:55:19.983Z,67.40
2019-03-10T19:57:48.213Z,66.50
2019-03-10T20:00:17.584Z,67.30
2019-03-10T20:02:45.829Z,67.20
2019-03-10T20:05:14.713Z,67.10
2019-03-10T20:07:43.819Z,66.90
2019-03-10T20:10:19.587Z,66.00
2019-03-10T20:12:47.833Z,66.60
2019-03-10T20:15:17.490Z,65.60
2019-03-10T20:17:45.744Z,64.30
2019-03-10T20:20:15.829Z,64.10
2019-03-10T20:22:44.067Z,63.40
2019-03-10T20:25:14.285Z,62.10
2019-03-10T20:27:42.746Z,64.20
2019-03-10T20:30:25.443Z,64.30
2019-03-10T20:32:53.704Z,62.80
2019-03-10T20:35:21.943Z,62.80
2019-03-10T20:37:50.253Z,60.10
2019-03-10T20:40:19.831Z,58.10
2019-03-10T20:42:48.268Z,56.80
2019-03-10T20:45:16.566Z,58.40
2019-03-10T20:47:44.834Z,57.60
2019-03-10T20:50:15.800Z,58.30
2019-03-10T20:52:44.048Z,57.30
2019-03-10T20:55:14.196Z,57.20
2019-03-10T20:57:42.435Z,57.90
2019-03-10T21:00:21.258Z,59.40
2019-03-10T21:02:49.496Z,61.40
2019-03-10T21:05:17.903Z,62.40
2019-03-10T21:07:47.859Z,64.00
2019-03-10T21:10:17.989Z,66.70
2019-03-10T21:12:46.234Z,65.60
2019-03-10T21:15:22.541Z,67.60
2019-03-10T21:17:50.837Z,67.30
2019-03-10T21:20:20.310Z,66.60
2019-03-10T21:22:48.540Z,68.20
2019-03-10T21:25:30.644Z,68.00
2019-03-10T21:27:58.885Z,67.70
2019-03-10T21:30:34.381Z,66.40
2019-03-10T21:33:02.605Z,64.70
2019-03-10T21:35:33.111Z,63.60
2019-03-10T21:38:00.801Z,64.40
2019-03-10T21:40:30.950Z,60.50
2019-03-10T21:42:59.489Z,61.20
2019-03-10T21:45:27.722Z,62.00
2019-03-10T21:47:55.958Z,60.20
2019-03-10T21:50:24.223Z,60.10
2019-03-10T21:52:52.527Z,59.50
2019-03-10T21:55:20.773Z,60.80
2019-03-10T21:57:49.267Z,60.40
2019-03-10T22:00:21.003Z,60.10
2019-03-10T22:02:49.237Z,61.10
2019-03-10T22:05:17.752Z,62.60
2019-03-10T22:07:45.982Z,61.30
2019-03-10T22:10:27.120Z,63.40
2019-03-10T22:12:49.074Z,61.50
2019-03-10T22:15:19.564Z,60.00
2019-03-10T22:17:47.813Z,59.00
2019-03-10T22:20:17.032Z,60.40
2019-03-10T22:22:49.266Z,59.80
2019-03-10T22:25:15.334Z,59.60
2019-03-10T22:27:45.922Z,58.50
2019-03-10T22:30:15.733Z,58.40
2019-03-10T22:32:43.967Z,58.80
2019-03-10T22:35:12.200Z,58.00
2019-03-10T22:37:40.710Z,58.20
2019-03-10T22:40:14.042Z,58.00
2019-03-10T22:42:42.269Z,58.60
2019-03-10T22:45:21.108Z,58.30
2019-03-10T22:47:49.337Z,57.20
2019-03-10T22:50:18.679Z,55.00
2019-03-10T22:52:46.905Z,54.20
2019-03-10T22:55:15.664Z,54.20
2019-03-10T22:57:43.901Z,54.90
2019-03-10T23:00:45.221Z,55.00
2019-03-10T23:03:12.751Z,53.40
2019-03-10T23:05:41.760Z,52.50
2019-03-10T23:08:10.244Z,52.70
2019-03-10T23:10:38.474Z,52.40
2019-03-10T23:13:06.688Z,53.90
2019-03-10T23:15:34.960Z,54.00
2019-03-10T23:18:03.186Z,52.80
2019-03-10T23:20:31.414Z,53.80
2019-03-10T23:22:59.636Z,54.40
2019-03-10T23:25:27.856Z,53.30
2019-03-10T23:27:56.413Z,54.30
2019-03-10T23:30:24.637Z,54.50
2019-03-10T23:32:52.868Z,53.90
2019-03-10T23:35:21.192Z,54.00
2019-03-10T23:37:49.421Z,54.70
2019-03-10T23:40:18.967Z,54.80
2019-03-10T23:42:47.192Z,55.00
2019-03-10T23:45:16.780Z,55.30
2019-03-10T23:47:45.117Z,54.50
2019-03-10T23:50:17.464Z,54.40
2019-03-10T23:52:45.688Z,53.70
2019-03-10T23:55:14.248Z,54.40
2019-03-10T23:57:42.477Z,53.90
